Time;durP1;ratioP1;P1;durP2;ratioP2;P2;SDS_P1;SDS_P2;PMS_P1;PMS_P2;Temp;Humidity;BMP_temperature;BMP_pressure;BME280_temperature;BME280_humidity;BME280_pressure;Samples;Min_cycle;Max_cycle;Signal;HPM_P1;HPM_P2
2021/01/05 00:02:23;;;;;;;136.32;79.90;;;7.70;99.60;;;;;;5096368;28;20028;-69
2021/01/05 00:04:50;;;;;;;150.50;86.72;;;7.60;99.40;;;;;;5095545;28;20485;-71
2021/01/05 00:07:16;;;;;;;242.85;124.38;;;7.50;99.50;;;;;;5095954;28;20073;-69
2021/01/05 00:09:42;;;;;;;227.05;119.55;;;7.50;99.50;;;;;;5096140;28;20036;-70
2021/01/05 00:12:12;;;;;;;232.13;120.18;;;7.50;99.40;;;;;;5095579;28;20103;-71
2021/01/05 00:14:43;;;;;;;122.97;70.63;;;7.50;99.30;;;;;;5095435;28;20094;-69
2021/01/05 00:17:10;;;;;;;273.02;137.90;;;7.50;99.20;;;;;;5094447;28;20035;-70
2021/01/05 00:19:36;;;;;;;120.20;68.55;;;7.50;99.10;;;;;;5095130;28;20432;-70
2021/01/05 00:22:03;;;;;;;171.35;86.05;;;7.50;99.30;;;;;;5095670;28;20028;-69
2021/01/05 00:24:29;;;;;;;115.78;63.88;;;7.30;99.30;;;;;;5095620;28;20024;-69
2021/01/05 00:26:54;;;;;;;195.25;91.10;;;7.20;99.60;;;;;;5095610;28;20123;-68
2021/01/05 00:29:21;;;;;;;200.25;93.72;;;7.30;99.60;;;;;;5095436;28;20035;-70
2021/01/05 00:31:47;;;;;;;127.90;67.60;;;7.30;99.60;;;;;;5094185;28;20385;-71
2021/01/05 00:34:13;;;;;;;298.83;137.95;;;7.20;99.50;;;;;;5095098;28;20111;-69
2021/01/05 00:36:39;;;;;;;150.68;75.60;;;7.20;99.40;;;;;;5094398;28;20115;-69
2021/01/05 00:39:06;;;;;;;149.52;74.95;;;7.20;99.60;;;;;;5095404;28;20529;-70
2021/01/05 00:41:33;;;;;;;178.73;95.13;;;7.10;99.70;;;;;;5093965;28;20024;-69
2021/01/05 00:43:59;;;;;;;145.15;70.97;;;7.20;99.70;;;;;;5094982;28;20107;-69
2021/01/05 00:46:25;;;;;;;165.10;75.25;;;7.10;99.80;;;;;;5093629;28;20710;-71
2021/01/05 00:48:51;;;;;;;121.65;60.45;;;7.20;99.70;;;;;;5094801;28;20032;-69
2021/01/05 00:51:17;;;;;;;167.27;74.60;;;7.10;99.80;;;;;;5095385;28;20066;-70
2021/01/05 00:53:43;;;;;;;155.57;70.50;;;7.10;99.70;;;;;;5094455;28;20513;-71
2021/01/05 00:56:09;;;;;;;148.13;64.70;;;6.80;99.90;;;;;;5092656;28;20382;-70
2021/01/05 00:58:36;;;;;;;191.70;79.45;;;6.90;99.90;;;;;;5093971;28;20458;-69
2021/01/05 01:01:02;;;;;;;156.57;67.53;;;6.90;99.90;;;;;;5093264;28;20020;-70
2021/01/05 01:03:28;;;;;;;268.05;108.10;;;6.90;99.90;;;;;;5093596;28;20119;-68
2021/01/05 01:05:54;;;;;;;140.55;61.95;;;6.90;99.90;;;;;;5095114;28;20055;-69
2021/01/05 01:08:20;;;;;;;136.20;61.80;;;6.80;99.90;;;;;;5094396;28;20035;-68
2021/01/05 01:10:47;;;;;;;135.20;59.72;;;6.90;99.90;;;;;;5093328;28;20043;-70
2021/01/05 01:13:14;;;;;;;114.03;53.58;;;6.80;99.90;;;;;;5094396;28;20470;-70
2021/01/05 01:15:40;;;;;;;125.28;59.53;;;6.90;99.90;;;;;;5094384;28;20403;-73
2021/01/05 01:18:06;;;;;;;149.48;64.35;;;6.80;99.90;;;;;;5094587;28;20085;-70
2021/01/05 01:20:33;;;;;;;152.95;66.80;;;6.80;99.90;;;;;;5094598;28;20036;-70
2021/01/05 01:22:59;;;;;;;112.80;52.72;;;6.80;99.90;;;;;;5092916;28;20023;-69
2021/01/05 01:25:24;;;;;;;152.73;59.42;;;6.90;99.70;;;;;;5094461;28;20377;-69
2021/01/05 01:27:51;;;;;;;183.32;67.43;;;6.80;99.70;;;;;;5093527;28;20024;-72
2021/01/05 01:30:18;;;;;;;162.60;61.67;;;6.80;99.70;;;;;;5093739;28;20032;-70
2021/01/05 01:32:44;;;;;;;153.02;59.40;;;6.80;99.90;;;;;;5093559;28;20453;-70
2021/01/05 01:35:10;;;;;;;151.13;60.35;;;6.70;99.90;;;;;;5094026;28;20111;-68
2021/01/05 01:37:36;;;;;;;127.65;52.55;;;6.70;99.90;;;;;;5092680;28;20028;-70
2021/01/05 01:40:03;;;;;;;128.43;55.58;;;6.70;99.90;;;;;;5094522;28;20479;-71
2021/01/05 01:42:28;;;;;;;115.38;48.50;;;6.70;99.80;;;;;;5094594;28;20020;-70
2021/01/05 01:44:54;;;;;;;104.75;47.50;;;6.80;99.60;;;;;;5092830;28;20496;-68
2021/01/05 01:47:25;;;;;;;89.82;42.05;;;6.80;99.40;;;;;;5094149;28;20032;-68
2021/01/05 01:49:58;;;;;;;181.98;70.65;;;6.80;99.40;;;;;;5093642;28;20124;-69
2021/01/05 01:52:30;;;;;;;102.97;46.63;;;6.80;99.30;;;;;;5094378;28;20027;-69
2021/01/05 01:55:16;;;;;;;73.07;35.53;;;6.80;99.20;;;;;;5093496;28;20085;-69
2021/01/05 01:57:51;;;;;;;96.05;44.60;;;6.80;99.30;;;;;;5092434;28;20028;-69
2021/01/05 02:00:23;;;;;;;94.05;42.95;;;6.80;99.30;;;;;;5094019;28;20027;-70
2021/01/05 02:03:17;;;;;;;126.35;51.40;;;6.80;99.40;;;;;;5093945;28;20016;-69
2021/01/05 02:05:48;;;;;;;144.68;59.38;;;6.80;99.20;;;;;;5093891;28;20024;-68
2021/01/05 02:08:39;;;;;;;123.18;51.10;;;6.80;99.40;;;;;;5093318;28;20028;-68
2021/01/05 02:11:25;;;;;;;176.75;65.80;;;6.90;99.10;;;;;;5093286;28;20035;-69
2021/01/05 02:14:11;;;;;;;127.00;51.70;;;6.80;99.20;;;;;;5093466;28;20565;-69
2021/01/05 02:17:04;;;;;;;138.88;56.00;;;6.80;99.30;;;;;;5094064;28;20024;-69
2021/01/05 02:19:36;;;;;;;107.43;46.75;;;6.70;99.50;;;;;;5093423;28;20024;-68
2021/01/05 02:22:09;;;;;;;210.93;77.22;;;6.70;99.70;;;;;;5093736;28;20056;-71
2021/01/05 02:25:01;;;;;;;178.63;68.57;;;6.70;99.50;;;;;;5093327;28;20027;-68
2021/01/05 02:27:27;;;;;;;138.93;55.80;;;6.60;99.60;;;;;;5092589;28;20454;-69
2021/01/05 02:30:04;;;;;;;189.38;72.68;;;6.70;99.50;;;;;;5092242;28;20131;-68
2021/01/05 02:32:42;;;;;;;129.60;52.95;;;6.70;99.60;;;;;;5093172;28;20132;-69
2021/01/05 02:35:20;;;;;;;125.80;55.58;;;6.90;99.40;;;;;;5093579;28;20024;-69
2021/01/05 02:38:13;;;;;;;209.88;77.63;;;6.90;99.10;;;;;;5092343;28;20032;-68
2021/01/05 02:41:13;;;;;;;135.32;56.65;;;6.90;98.90;;;;;;5093571;28;20028;-69
2021/01/05 02:43:49;;;;;;;140.10;56.00;;;6.90;98.90;;;;;;5093881;28;20028;-69
2021/01/05 02:46:34;;;;;;;116.15;50.25;;;6.90;98.90;;;;;;5091960;28;20031;-68
2021/01/05 02:49:29;;;;;;;112.95;46.50;;;6.80;99.00;;;;;;5093413;28;20070;-70
2021/01/05 02:52:32;;;;;;;104.73;43.13;;;6.80;99.30;;;;;;5092231;28;20024;-69
2021/01/05 02:55:22;;;;;;;120.97;48.60;;;6.70;99.00;;;;;;5093507;28;20241;-69
2021/01/05 02:58:32;;;;;;;112.05;47.92;;;6.80;99.10;;;;;;5093444;28;20024;-69
2021/01/05 03:01:54;;;;;;;153.27;59.53;;;6.80;99.10;;;;;;5053870;28;20028;-69
2021/01/05 03:04:20;;;;;;;203.60;76.07;;;6.80;99.10;;;;;;5014306;28;20025;-69
2021/01/05 03:06:58;;;;;;;122.88;52.72;;;6.80;98.80;;;;;;5030566;28;20473;-68
2021/01/05 03:09:36;;;;;;;80.07;40.53;;;6.80;98.60;;;;;;5065241;28;20405;-71
2021/01/05 03:12:26;;;;;;;98.50;43.40;;;6.70;98.60;;;;;;5091942;28;20107;-68
2021/01/05 03:15:23;;;;;;;95.93;45.78;;;6.80;98.60;;;;;;5093008;28;20052;-69
2021/01/05 03:17:57;;;;;;;160.65;66.38;;;6.80;98.60;;;;;;5093220;28;20107;-69
2021/01/05 03:20:59;;;;;;;118.40;54.80;;;6.80;98.40;;;;;;5095076;28;20028;-71
2021/01/05 03:23:27;;;;;;;127.93;59.33;;;6.70;98.20;;;;;;5086635;28;20042;-69
2021/01/05 03:25:55;;;;;;;123.05;56.70;;;6.70;98.30;;;;;;5096468;28;20044;-68
2021/01/05 03:28:26;;;;;;;122.68;56.65;;;6.80;98.40;;;;;;5096113;28;20031;-70
2021/01/05 03:31:24;;;;;;;102.60;49.13;;;6.70;98.30;;;;;;5096391;28;20567;-70
2021/01/05 03:33:58;;;;;;;187.65;79.10;;;6.80;98.30;;;;;;5097644;28;20102;-70
2021/01/05 03:36:24;;;;;;;93.60;47.03;;;6.70;98.20;;;;;;5096328;28;20028;-68
2021/01/05 03:38:50;;;;;;;98.28;50.38;;;6.80;98.20;;;;;;5096011;28;20043;-68
2021/01/05 03:41:16;;;;;;;111.85;54.92;;;6.70;97.90;;;;;;5094879;28;20035;-70
2021/01/05 03:43:42;;;;;;;82.10;45.67;;;6.60;98.20;;;;;;5096481;28;20032;-68
2021/01/05 03:46:11;;;;;;;104.05;50.45;;;6.70;98.30;;;;;;5096377;28;20024;-68
2021/01/05 03:48:36;;;;;;;130.52;61.58;;;6.70;98.10;;;;;;5094620;28;20028;-69
2021/01/05 03:51:02;;;;;;;101.63;51.58;;;6.70;98.20;;;;;;5096024;28;20041;-71
2021/01/05 03:53:28;;;;;;;226.63;84.55;;;6.60;97.90;;;;;;5096517;28;20154;-69
2021/01/05 03:55:54;;;;;;;195.18;77.38;;;6.60;98.10;;;;;;5095804;28;20065;-69
2021/01/05 03:58:20;;;;;;;90.10;51.25;;;6.60;98.10;;;;;;5096420;28;20473;-69
2021/01/05 04:00:46;;;;;;;67.85;42.65;;;6.60;98.20;;;;;;5095808;28;20067;-70
2021/01/05 04:03:12;;;;;;;160.40;72.72;;;6.50;98.00;;;;;;5095917;28;20106;-69
2021/01/05 04:05:38;;;;;;;226.32;94.20;;;6.50;98.30;;;;;;5096217;28;20027;-69
2021/01/05 04:08:04;;;;;;;146.32;71.43;;;6.40;98.50;;;;;;5095987;28;20076;-69
2021/01/05 04:10:29;;;;;;;123.70;62.35;;;6.50;98.50;;;;;;5094165;28;20036;-68
2021/01/05 04:12:55;;;;;;;71.80;44.65;;;6.40;98.50;;;;;;5094295;28;20038;-67
2021/01/05 04:15:27;;;;;;;79.13;47.83;;;6.40;98.30;;;;;;5096151;28;20032;-70
2021/01/05 04:17:54;;;;;;;89.65;51.53;;;6.50;98.30;;;;;;5095641;28;20024;-70
2021/01/05 04:20:22;;;;;;;79.05;45.88;;;6.50;98.30;;;;;;5095728;28;20032;-70
2021/01/05 04:22:48;;;;;;;144.57;77.82;;;6.40;98.20;;;;;;5095414;28;20380;-67
2021/01/05 04:25:16;;;;;;;78.50;48.30;;;6.50;98.30;;;;;;5095568;28;20028;-71
2021/01/05 04:27:42;;;;;;;77.15;47.13;;;6.40;98.20;;;;;;5094242;28;20024;-69
2021/01/05 04:30:22;;;;;;;73.45;43.80;;;6.50;98.40;;;;;;5093682;28;20105;-69
2021/01/05 04:32:48;;;;;;;133.15;73.80;;;6.40;98.20;;;;;;5095557;28;20355;-68
2021/01/05 04:35:16;;;;;;;114.60;64.65;;;6.50;98.10;;;;;;5095149;28;20532;-70
2021/01/05 04:37:42;;;;;;;193.55;98.97;;;6.40;98.10;;;;;;5095098;28;20024;-68
2021/01/05 04:40:28;;;;;;;112.55;65.03;;;6.40;98.00;;;;;;5094020;28;20054;-68
2021/01/05 04:43:19;;;;;;;82.35;49.78;;;6.40;98.00;;;;;;5094012;28;20038;-71
2021/01/05 04:46:06;;;;;;;81.43;50.28;;;6.40;98.10;;;;;;5095025;28;20081;-69
2021/01/05 04:49:01;;;;;;;96.10;58.22;;;6.50;98.00;;;;;;5095298;28;20028;-70
2021/01/05 04:51:46;;;;;;;114.38;65.60;;;6.40;97.80;;;;;;5072649;28;20068;-69
2021/01/05 04:54:23;;;;;;;87.32;52.05;;;6.40;97.80;;;;;;5095143;28;20466;-69
2021/01/05 04:57:19;;;;;;;101.68;69.13;;;6.40;97.80;;;;;;5095071;28;20028;-69
2021/01/05 05:00:16;;;;;;;100.38;67.78;;;6.30;97.90;;;;;;5094453;28;20020;-70
2021/01/05 05:03:02;;;;;;;99.32;68.63;;;6.30;97.80;;;;;;5095205;28;20027;-70
2021/01/05 05:05:31;;;;;;;98.32;69.82;;;6.30;97.90;;;;;;5095066;28;20024;-69
2021/01/05 05:08:40;;;;;;;99.63;67.53;;;6.20;97.80;;;;;;5093490;28;20020;-69
2021/01/05 05:11:12;;;;;;;119.07;79.57;;;6.20;97.80;;;;;;5072843;28;20478;-68
2021/01/05 05:13:48;;;;;;;111.88;78.07;;;6.20;98.00;;;;;;5094333;28;20048;-71
2021/01/05 05:16:38;;;;;;;89.10;58.67;;;6.10;98.00;;;;;;5094759;28;20024;-69
2021/01/05 05:19:39;;;;;;;90.63;58.25;;;6.00;97.70;;;;;;5094326;28;20043;-69
2021/01/05 05:22:14;;;;;;;103.13;62.83;;;5.80;97.80;;;;;;5094207;28;20024;-70
2021/01/05 05:24:57;;;;;;;125.75;79.40;;;5.70;98.10;;;;;;5093283;28;20025;-68
2021/01/05 05:28:01;;;;;;;149.95;91.28;;;5.60;98.30;;;;;;5093975;28;20032;-69
2021/01/05 05:30:33;;;;;;;133.40;80.03;;;5.60;98.70;;;;;;5084443;28;20063;-70
2021/01/05 05:33:02;;;;;;;101.60;62.95;;;5.50;98.40;;;;;;5094690;28;20032;-67
2021/01/05 05:35:57;;;;;;;98.60;58.17;;;5.60;98.20;;;;;;5093921;28;20382;-68
2021/01/05 05:39:00;;;;;;;93.82;55.15;;;5.60;98.20;;;;;;5094668;28;20020;-71
2021/01/05 05:42:03;;;;;;;98.97;56.30;;;5.60;98.00;;;;;;5092165;28;20020;-70
2021/01/05 05:44:47;;;;;;;97.25;60.08;;;5.60;98.00;;;;;;5092921;28;20114;-69
2021/01/05 05:47:57;;;;;;;103.63;68.95;;;5.60;97.70;;;;;;5092810;28;20024;-69
2021/01/05 05:50:32;;;;;;;168.82;108.95;;;5.70;97.80;;;;;;5014970;28;20527;-70
2021/01/05 05:53:13;;;;;;;151.00;99.75;;;5.60;97.50;;;;;;5015057;28;20026;-67
2021/01/05 05:55:39;;;;;;;148.95;98.30;;;5.70;97.60;;;;;;5062911;28;20033;-68
2021/01/05 05:58:06;;;;;;;99.63;56.22;;;5.60;97.50;;;;;;5094018;28;20484;-68
2021/01/05 06:00:37;;;;;;;118.25;75.53;;;5.40;97.60;;;;;;5094238;28;20034;-68
2021/01/05 06:03:05;;;;;;;118.57;77.53;;;5.40;97.70;;;;;;5092426;28;20024;-69
2021/01/05 06:05:36;;;;;;;93.07;57.53;;;5.40;97.80;;;;;;5093849;28;20031;-70
2021/01/05 06:08:04;;;;;;;91.57;56.63;;;5.30;97.60;;;;;;5092539;28;20024;-69
2021/01/05 06:10:30;;;;;;;103.30;61.42;;;5.30;97.90;;;;;;5093772;28;20423;-70
2021/01/05 06:12:56;;;;;;;108.40;69.25;;;5.20;97.70;;;;;;5093576;28;20035;-69
2021/01/05 06:15:22;;;;;;;102.13;67.30;;;5.20;97.90;;;;;;5093570;28;20047;-71
2021/01/05 06:17:49;;;;;;;114.32;72.95;;;5.20;97.90;;;;;;5092477;28;20031;-68
2021/01/05 06:20:16;;;;;;;113.07;71.13;;;5.20;98.00;;;;;;5092480;28;20122;-70
2021/01/05 06:22:42;;;;;;;108.43;68.80;;;5.10;98.10;;;;;;5092133;28;20024;-70
2021/01/05 06:25:09;;;;;;;113.93;68.70;;;5.10;98.30;;;;;;5093383;28;20519;-71
2021/01/05 06:27:36;;;;;;;105.88;69.07;;;5.20;98.20;;;;;;5093405;28;20021;-69
2021/01/05 06:30:03;;;;;;;108.38;68.47;;;5.20;98.40;;;;;;5093347;28;20036;-69
2021/01/05 06:32:29;;;;;;;123.32;81.93;;;5.20;98.40;;;;;;5093565;28;20055;-71
2021/01/05 06:34:54;;;;;;;165.43;108.22;;;5.20;98.30;;;;;;5092603;28;20062;-70
2021/01/05 06:37:20;;;;;;;173.82;110.65;;;5.30;98.50;;;;;;5091952;28;20024;-71
2021/01/05 06:39:46;;;;;;;146.60;95.05;;;5.20;98.70;;;;;;5093547;28;20039;-69
2021/01/05 06:42:13;;;;;;;110.63;71.38;;;5.30;98.70;;;;;;5093483;28;20036;-68
2021/01/05 06:44:40;;;;;;;102.75;61.45;;;5.40;98.50;;;;;;5093323;28;20031;-68
2021/01/05 06:47:06;;;;;;;80.57;49.03;;;5.40;98.70;;;;;;5093406;28;20092;-69
2021/01/05 06:49:32;;;;;;;116.15;70.03;;;5.50;98.20;;;;;;5093400;28;20123;-69
2021/01/05 06:51:58;;;;;;;104.22;65.03;;;5.50;98.40;;;;;;5091813;28;20036;-68
2021/01/05 06:54:24;;;;;;;127.03;80.35;;;5.50;98.40;;;;;;5094678;28;20024;-70
2021/01/05 06:56:54;;;;;;;88.43;56.05;;;5.50;98.30;;;;;;5097300;28;20107;-71
2021/01/05 06:59:22;;;;;;;98.07;60.65;;;5.50;98.10;;;;;;5095699;28;20024;-71
2021/01/05 07:01:59;;;;;;;94.50;57.53;;;5.60;98.00;;;;;;5097324;28;20093;-71
2021/01/05 07:04:26;;;;;;;84.43;48.47;;;5.70;97.90;;;;;;5096964;28;20027;-69
2021/01/05 07:06:52;;;;;;;116.57;72.22;;;5.60;97.90;;;;;;5095907;28;20024;-69
2021/01/05 07:09:20;;;;;;;95.10;57.78;;;5.60;98.00;;;;;;5097018;28;20028;-69
2021/01/05 07:11:46;;;;;;;86.85;51.22;;;5.60;98.10;;;;;;5096639;28;20103;-69
2021/01/05 07:14:14;;;;;;;82.15;47.72;;;5.60;97.90;;;;;;5096766;28;20051;-70
2021/01/05 07:16:40;;;;;;;86.95;51.45;;;5.70;97.90;;;;;;5096628;28;20477;-71
2021/01/05 07:19:06;;;;;;;81.32;48.45;;;5.70;97.90;;;;;;5095605;28;20032;-71
2021/01/05 07:21:31;;;;;;;76.53;45.42;;;5.70;97.70;;;;;;5096922;28;20031;-71
2021/01/05 07:23:57;;;;;;;96.15;56.55;;;5.60;98.20;;;;;;5096833;28;20473;-70
2021/01/05 07:26:23;;;;;;;114.93;64.05;;;5.60;97.80;;;;;;5096197;28;20028;-70
2021/01/05 07:28:49;;;;;;;104.05;64.55;;;5.60;97.70;;;;;;5095368;28;20082;-68
2021/01/05 07:31:15;;;;;;;110.18;66.68;;;5.70;97.70;;;;;;5095293;28;20028;-70
2021/01/05 07:33:40;;;;;;;127.20;77.55;;;5.70;97.90;;;;;;5093894;28;20117;-70
2021/01/05 07:36:20;;;;;;;106.38;58.97;;;5.80;97.70;;;;;;5095344;28;20024;-69
2021/01/05 07:38:46;;;;;;;154.65;85.90;;;5.60;97.40;;;;;;5096218;28;20088;-71
2021/01/05 07:41:12;;;;;;;132.10;78.85;;;5.50;97.70;;;;;;5095634;28;20024;-70
2021/01/05 07:43:38;;;;;;;103.22;64.07;;;5.50;97.80;;;;;;5096107;28;20169;-68
2021/01/05 07:46:04;;;;;;;93.47;55.05;;;5.50;97.80;;;;;;5094697;28;20024;-68
2021/01/05 07:48:29;;;;;;;107.30;61.78;;;5.60;97.90;;;;;;5095038;28;20020;-69
2021/01/05 07:50:55;;;;;;;112.03;69.72;;;5.60;98.00;;;;;;5094815;28;20046;-68
2021/01/05 07:53:21;;;;;;;114.97;66.88;;;5.70;98.00;;;;;;5096113;28;20024;-70
2021/01/05 07:55:47;;;;;;;111.07;65.82;;;5.70;97.80;;;;;;5094777;28;20024;-69
2021/01/05 07:58:13;;;;;;;478.75;244.70;;;5.60;97.60;;;;;;5094373;28;20028;-69
2021/01/05 08:00:38;;;;;;;200.00;109.20;;;5.60;97.90;;;;;;5095762;28;20032;-70
2021/01/05 08:03:04;;;;;;;320.13;203.93;;;5.60;97.70;;;;;;5093923;28;20119;-69
2021/01/05 08:05:30;;;;;;;170.00;109.38;;;5.70;98.10;;;;;;5094141;28;20028;-69
2021/01/05 08:07:57;;;;;;;125.30;74.55;;;5.80;97.80;;;;;;5095666;28;20032;-67
2021/01/05 08:10:35;;;;;;;171.63;98.43;;;5.80;97.60;;;;;;5095563;28;20470;-70
2021/01/05 08:13:04;;;;;;;155.20;91.53;;;5.60;97.70;;;;;;5094413;28;20020;-68
2021/01/05 08:15:30;;;;;;;130.88;79.53;;;5.50;97.80;;;;;;5096051;28;20357;-67
2021/01/05 08:17:56;;;;;;;178.63;103.43;;;5.50;98.20;;;;;;5095825;28;20032;-70
2021/01/05 08:20:25;;;;;;;146.02;84.70;;;5.60;98.20;;;;;;5095721;28;20382;-70
2021/01/05 08:22:51;;;;;;;117.93;66.57;;;5.40;98.00;;;;;;5095069;28;20478;-69
2021/01/05 08:25:18;;;;;;;133.07;79.78;;;5.60;98.40;;;;;;5094404;28;20130;-70
2021/01/05 08:27:48;;;;;;;139.07;89.30;;;5.80;98.50;;;;;;5095852;28;20027;-70
2021/01/05 08:30:23;;;;;;;101.72;68.25;;;5.90;97.80;;;;;;5093952;28;20032;-68
2021/01/05 08:32:51;;;;;;;105.00;67.38;;;5.80;97.20;;;;;;5095349;28;20519;-70
2021/01/05 08:35:19;;;;;;;79.57;50.67;;;5.90;97.50;;;;;;5093869;28;20127;-70
2021/01/05 08:37:45;;;;;;;97.43;64.05;;;5.80;96.80;;;;;;5094067;28;20020;-72
2021/01/05 08:40:16;;;;;;;83.90;53.58;;;5.90;96.60;;;;;;5095087;28;20152;-68
2021/01/05 08:42:42;;;;;;;104.97;61.83;;;5.90;96.70;;;;;;5093836;28;20024;-70
2021/01/05 08:45:09;;;;;;;142.73;81.88;;;6.10;96.80;;;;;;5093373;28;20024;-68
2021/01/05 08:47:35;;;;;;;88.68;54.80;;;6.00;96.90;;;;;;5092469;28;20032;-68
2021/01/05 08:50:01;;;;;;;158.48;96.68;;;6.10;96.90;;;;;;5093293;28;20040;-68
2021/01/05 08:52:27;;;;;;;117.82;70.25;;;6.20;96.30;;;;;;5094859;28;20016;-68
2021/01/05 08:54:52;;;;;;;127.40;79.28;;;6.10;96.50;;;;;;5094790;28;20373;-67
2021/01/05 08:57:18;;;;;;;127.22;79.57;;;5.90;96.30;;;;;;5093727;28;20028;-66
2021/01/05 08:59:47;;;;;;;100.40;63.83;;;6.00;96.70;;;;;;5093439;28;20427;-69
2021/01/05 09:02:14;;;;;;;98.47;59.42;;;5.90;96.60;;;;;;5093645;28;20481;-69
2021/01/05 09:04:40;;;;;;;76.63;49.50;;;5.80;96.40;;;;;;5094918;28;20032;-69
2021/01/05 09:07:06;;;;;;;76.90;51.25;;;5.80;96.60;;;;;;5093666;28;20028;-70
2021/01/05 09:09:31;;;;;;;78.00;53.58;;;5.70;96.60;;;;;;5094706;28;20067;-68
2021/01/05 09:11:58;;;;;;;89.13;59.42;;;5.50;96.90;;;;;;5094746;28;20055;-69
2021/01/05 09:14:25;;;;;;;90.05;56.40;;;5.50;97.40;;;;;;5093150;28;20048;-69
2021/01/05 09:17:01;;;;;;;98.82;62.65;;;5.70;98.00;;;;;;5093050;28;20040;-71
2021/01/05 09:19:28;;;;;;;97.22;58.92;;;5.90;97.40;;;;;;5094609;28;20024;-68
2021/01/05 09:21:55;;;;;;;96.72;59.80;;;6.10;97.40;;;;;;5094237;28;20044;-69
2021/01/05 09:24:22;;;;;;;83.93;53.05;;;6.10;96.70;;;;;;5094626;28;20047;-69
2021/01/05 09:26:53;;;;;;;83.63;54.08;;;6.10;96.20;;;;;;5093472;28;20028;-70
2021/01/05 09:29:20;;;;;;;103.63;66.90;;;6.20;96.60;;;;;;5093740;28;20028;-69
2021/01/05 09:31:48;;;;;;;111.28;71.05;;;6.00;96.10;;;;;;5093120;28;20032;-68
2021/01/05 09:34:16;;;;;;;90.40;55.92;;;6.20;96.90;;;;;;5093077;28;20462;-69
2021/01/05 09:36:42;;;;;;;82.97;50.28;;;6.10;96.10;;;;;;5094279;28;20458;-67
2021/01/05 09:39:12;;;;;;;159.20;93.50;;;6.00;95.90;;;;;;5094263;28;20024;-70
2021/01/05 09:41:44;;;;;;;124.72;74.50;;;5.90;96.60;;;;;;5092618;28;20024;-69
2021/01/05 09:44:11;;;;;;;107.05;64.53;;;5.90;97.00;;;;;;5094280;28;20104;-66
2021/01/05 09:46:40;;;;;;;96.57;60.00;;;6.00;96.70;;;;;;5092817;28;20028;-69
2021/01/05 09:49:13;;;;;;;87.63;51.78;;;6.10;96.90;;;;;;5093818;28;20382;-67
2021/01/05 09:51:39;;;;;;;78.93;47.35;;;6.30;96.90;;;;;;5092826;28;20465;-68
2021/01/05 09:54:05;;;;;;;119.43;77.95;;;6.50;96.70;;;;;;5092468;28;20146;-68
2021/01/05 09:56:31;;;;;;;117.00;75.50;;;6.30;96.00;;;;;;5092465;28;20024;-71
2021/01/05 09:58:57;;;;;;;108.90;73.32;;;6.30;96.50;;;;;;5094605;28;20572;-67
2021/01/05 10:01:25;;;;;;;98.13;63.08;;;6.30;96.10;;;;;;5093698;28;20028;-69
2021/01/05 10:03:51;;;;;;;127.70;75.65;;;6.30;96.70;;;;;;5092469;28;20546;-66
2021/01/05 10:06:17;;;;;;;235.35;129.93;;;6.30;96.10;;;;;;5093916;28;20055;-67
2021/01/05 10:08:43;;;;;;;121.55;73.57;;;6.30;96.40;;;;;;5093143;28;20020;-66
2021/01/05 10:11:09;;;;;;;96.03;61.80;;;6.20;96.10;;;;;;5092178;28;20385;-68
2021/01/05 10:13:34;;;;;;;144.38;89.60;;;6.10;96.20;;;;;;5092547;28;20052;-67
2021/01/05 10:16:00;;;;;;;110.32;67.63;;;6.30;96.10;;;;;;5094064;28;20039;-67
2021/01/05 10:18:26;;;;;;;134.15;94.63;;;6.40;96.20;;;;;;5092085;28;20131;-67
2021/01/05 10:20:52;;;;;;;119.10;84.95;;;6.30;95.80;;;;;;5092509;28;20036;-66
2021/01/05 10:23:18;;;;;;;135.77;92.22;;;6.30;95.90;;;;;;5093980;28;20394;-68
2021/01/05 10:25:44;;;;;;;182.05;122.55;;;6.30;96.20;;;;;;5092111;28;20062;-68
2021/01/05 10:28:09;;;;;;;168.25;106.45;;;6.30;95.80;;;;;;5095589;28;20055;-69
2021/01/05 10:30:36;;;;;;;105.45;68.45;;;6.40;95.80;;;;;;5097388;28;20040;-65
2021/01/05 10:33:02;;;;;;;89.88;61.40;;;6.50;96.20;;;;;;5097893;28;20020;-67
2021/01/05 10:35:27;;;;;;;155.77;95.95;;;6.60;96.00;;;;;;5095691;28;20034;-66
2021/01/05 10:37:53;;;;;;;129.27;78.53;;;6.50;96.00;;;;;;5095879;28;20028;-69
2021/01/05 10:40:20;;;;;;;165.35;103.22;;;6.50;95.80;;;;;;5096420;28;20408;-71
2021/01/05 10:42:48;;;;;;;156.43;92.53;;;6.20;95.30;;;;;;5097671;28;20407;-68
2021/01/05 10:45:18;;;;;;;94.43;61.90;;;6.30;96.50;;;;;;5096073;28;20028;-68
2021/01/05 10:47:44;;;;;;;227.43;123.80;;;6.10;95.70;;;;;;5097196;28;20035;-70
2021/01/05 10:50:12;;;;;;;121.15;73.35;;;6.20;95.10;;;;;;5097429;28;20380;-69
2021/01/05 10:52:38;;;;;;;104.90;66.65;;;6.30;96.30;;;;;;5095770;28;20047;-68
2021/01/05 10:55:05;;;;;;;154.25;92.78;;;6.30;95.80;;;;;;5095646;28;20024;-70
2021/01/05 10:57:31;;;;;;;91.18;58.42;;;6.20;95.30;;;;;;5095948;28;20546;-67
2021/01/05 10:59:57;;;;;;;160.98;87.97;;;6.30;95.80;;;;;;5096972;28;20036;-69
2021/01/05 11:02:23;;;;;;;96.88;57.92;;;6.20;95.40;;;;;;5097224;28;20465;-68
2021/01/05 11:04:49;;;;;;;85.78;54.08;;;6.40;95.80;;;;;;5097047;28;20024;-69
2021/01/05 11:07:16;;;;;;;159.43;103.78;;;6.40;95.10;;;;;;5095896;28;20027;-66
2021/01/05 11:09:44;;;;;;;122.47;73.35;;;6.40;95.60;;;;;;5097091;28;20355;-69
2021/01/05 11:12:12;;;;;;;157.68;95.82;;;6.30;95.80;;;;;;5097301;28;20020;-68
2021/01/05 11:14:39;;;;;;;209.40;116.80;;;6.30;95.60;;;;;;5095064;28;20463;-69
2021/01/05 11:17:07;;;;;;;130.18;78.47;;;6.40;96.20;;;;;;5095624;28;20030;-68
2021/01/05 11:19:34;;;;;;;172.88;106.63;;;6.50;95.70;;;;;;5097105;28;20073;-69
2021/01/05 11:22:02;;;;;;;98.95;61.80;;;6.40;95.60;;;;;;5095573;28;20090;-67
2021/01/05 11:24:29;;;;;;;120.07;68.70;;;6.40;95.50;;;;;;5094194;28;20032;-67
2021/01/05 11:26:58;;;;;;;90.18;56.15;;;6.50;95.40;;;;;;5096079;28;20028;-68
2021/01/05 11:29:25;;;;;;;67.45;43.08;;;6.60;95.30;;;;;;5095104;28;20036;-66
2021/01/05 11:32:12;;;;;;;116.60;75.63;;;6.50;94.60;;;;;;5096139;28;20028;-69
2021/01/05 11:34:38;;;;;;;122.35;71.20;;;6.70;95.40;;;;;;5095818;28;20035;-67
2021/01/05 11:37:10;;;;;;;106.75;63.05;;;6.90;95.20;;;;;;5096528;28;20048;-68
2021/01/05 11:39:37;;;;;;;105.38;65.15;;;7.10;94.20;;;;;;5094390;28;20032;-66
2021/01/05 11:42:04;;;;;;;142.15;75.82;;;7.30;93.90;;;;;;5094969;28;20124;-66
2021/01/05 11:44:30;;;;;;;93.28;66.45;;;7.20;93.50;;;;;;5096248;28;20016;-68
2021/01/05 11:46:56;;;;;;;73.97;49.85;;;7.30;93.90;;;;;;5095333;28;20086;-67
2021/01/05 11:49:24;;;;;;;84.40;54.83;;;7.40;93.40;;;;;;5094894;28;20085;-68
2021/01/05 11:51:52;;;;;;;91.95;54.75;;;8.00;96.20;;;;;;5096427;28;20020;-68
2021/01/05 11:54:20;;;;;;;81.13;50.78;;;8.30;92.20;;;;;;5096040;28;20524;-67
2021/01/05 11:56:46;;;;;;;75.00;50.40;;;8.60;91.50;;;;;;5095962;28;20031;-66
2021/01/05 11:59:13;;;;;;;80.63;48.70;;;8.90;92.50;;;;;;5094610;28;20028;-69
2021/01/05 12:01:39;;;;;;;72.03;43.72;;;9.80;91.70;;;;;;5095833;28;20028;-69
2021/01/05 12:04:07;;;;;;;67.18;42.00;;;11.00;92.10;;;;;;5096100;28;20031;-68
2021/01/05 12:06:32;;;;;;;81.63;48.15;;;10.80;83.80;;;;;;5096006;28;20056;-69
2021/01/05 12:08:59;;;;;;;67.07;46.58;;;10.60;85.20;;;;;;5095627;28;20063;-68
2021/01/05 12:11:31;;;;;;;95.30;63.88;;;10.00;86.90;;;;;;5095981;28;20035;-66
2021/01/05 12:13:57;;;;;;;68.72;43.80;;;10.40;90.30;;;;;;5095883;28;20048;-66
2021/01/05 12:16:31;;;;;;;65.57;45.47;;;10.20;83.20;;;;;;5095777;28;20026;-69
2021/01/05 12:18:59;;;;;;;98.40;60.60;;;10.00;85.80;;;;;;5095991;28;20473;-66
2021/01/05 12:21:35;;;;;;;73.22;47.35;;;10.00;88.70;;;;;;5096151;28;20099;-66
2021/01/05 12:24:01;;;;;;;206.60;88.07;;;10.50;83.80;;;;;;5094220;28;20032;-67
2021/01/05 12:26:33;;;;;;;98.25;57.95;;;10.00;87.30;;;;;;5095696;28;20061;-67
2021/01/05 12:29:00;;;;;;;95.93;59.75;;;9.90;89.90;;;;;;5094300;28;20059;-67
2021/01/05 12:31:27;;;;;;;100.90;64.22;;;9.30;88.30;;;;;;5095105;28;20488;-69
2021/01/05 12:33:54;;;;;;;299.45;144.63;;;8.90;90.30;;;;;;5095563;28;20028;-69
2021/01/05 12:36:29;;;;;;;113.68;69.40;;;8.80;91.30;;;;;;5095579;28;20028;-66
2021/01/05 12:38:55;;;;;;;129.10;74.63;;;8.80;91.30;;;;;;5094927;28;20415;-66
2021/01/05 12:41:21;;;;;;;99.97;64.78;;;9.00;91.10;;;;;;5095423;28;20461;-67
2021/01/05 12:43:47;;;;;;;120.82;73.03;;;8.60;91.10;;;;;;5095033;28;20034;-69
2021/01/05 12:46:24;;;;;;;121.95;78.03;;;8.50;92.20;;;;;;5095067;28;20101;-67
2021/01/05 12:48:50;;;;;;;118.78;74.53;;;8.30;91.70;;;;;;5093997;28;20073;-66